sensor_id;sensor_type;location;lat;lon;timestamp;pressure;altitude;pressure_sealevel;temperature;humidity
40075;BME280;26529;51.530;11.754;2023-02-10T00:00:41;101819.16;;;19.11;42.28
40075;BME280;26529;51.530;11.754;2023-02-10T00:03:06;101817.47;;;19.08;42.44
40075;BME280;26529;51.530;11.754;2023-02-10T00:05:32;101827.25;;;19.08;42.44
40075;BME280;26529;51.530;11.754;2023-02-10T00:07:57;101823.66;;;19.09;42.44
40075;BME280;26529;51.530;11.754;2023-02-10T00:10:23;101824.66;;;19.06;42.46
40075;BME280;26529;51.530;11.754;2023-02-10T00:12:48;101824.66;;;19.06;42.50
40075;BME280;26529;51.530;11.754;2023-02-10T00:15:14;101829.09;;;19.06;42.45
40075;BME280;26529;51.530;11.754;2023-02-10T00:17:39;101835.34;;;19.05;42.51
40075;BME280;26529;51.530;11.754;2023-02-10T00:20:05;101830.94;;;19.04;42.39
40075;BME280;26529;51.530;11.754;2023-02-10T00:22:32;101833.66;;;19.02;42.58
40075;BME280;26529;51.530;11.754;2023-02-10T00:24:57;101823.03;;;19.02;42.51
40075;BME280;26529;51.530;11.754;2023-02-10T00:27:23;101827.47;;;19.02;42.13
40075;BME280;26529;51.530;11.754;2023-02-10T00:29:50;101823.03;;;19.01;42.22
40075;BME280;26529;51.530;11.754;2023-02-10T00:32:15;101831.03;;;19.01;42.59
40075;BME280;26529;51.530;11.754;2023-02-10T00:34:45;101823.97;;;18.99;42.35
40075;BME280;26529;51.530;11.754;2023-02-10T00:37:12;101822.25;;;18.98;42.53
40075;BME280;26529;51.530;11.754;2023-02-10T00:39:37;101825.84;;;18.97;42.35
40075;BME280;26529;51.530;11.754;2023-02-10T00:42:03;101833.81;;;18.97;42.50
40075;BME280;26529;51.530;11.754;2023-02-10T00:44:28;101843.56;;;18.97;42.44
40075;BME280;26529;51.530;11.754;2023-02-10T00:46:55;101839.25;;;18.94;42.42
40075;BME280;26529;51.530;11.754;2023-02-10T00:49:20;101842.75;;;18.95;42.35
40075;BME280;26529;51.530;11.754;2023-02-10T00:51:46;101848.97;;;18.95;42.30
40075;BME280;26529;51.530;11.754;2023-02-10T00:54:12;101850.75;;;18.95;42.55
40075;BME280;26529;51.530;11.754;2023-02-10T00:56:39;101853.44;;;18.93;42.53
40075;BME280;26529;51.530;11.754;2023-02-10T00:59:04;101848.13;;;18.93;42.39
40075;BME280;26529;51.530;11.754;2023-02-10T01:01:30;101849.06;;;18.92;42.43
40075;BME280;26529;51.530;11.754;2023-02-10T01:03:56;101850.00;;;18.91;42.51
40075;BME280;26529;51.530;11.754;2023-02-10T01:06:21;101851.84;;;18.89;42.34
40075;BME280;26529;51.530;11.754;2023-02-10T01:08:47;101847.47;;;18.88;42.42
40075;BME280;26529;51.530;11.754;2023-02-10T01:11:14;101858.00;;;18.90;42.59
40075;BME280;26529;51.530;11.754;2023-02-10T01:13:41;101854.50;;;18.89;42.47
40075;BME280;26529;51.530;11.754;2023-02-10T01:16:11;101856.34;;;18.87;42.59
40075;BME280;26529;51.530;11.754;2023-02-10T01:18:39;101858.09;;;18.88;42.49
40075;BME280;26529;51.530;11.754;2023-02-10T01:21:09;101855.47;;;18.87;42.47
40075;BME280;26529;51.530;11.754;2023-02-10T01:23:35;101843.16;;;18.84;42.42
40075;BME280;26529;51.530;11.754;2023-02-10T01:26:01;101848.44;;;18.85;42.38
40075;BME280;26529;51.530;11.754;2023-02-10T01:28:26;101841.41;;;18.84;42.30
40075;BME280;26529;51.530;11.754;2023-02-10T01:30:52;101837.81;;;18.85;42.57
40075;BME280;26529;51.530;11.754;2023-02-10T01:33:17;101839.63;;;18.83;42.59
40075;BME280;26529;51.530;11.754;2023-02-10T01:35:43;101841.41;;;18.84;42.55
40075;BME280;26529;51.530;11.754;2023-02-10T01:38:08;101847.69;;;18.82;42.51
40075;BME280;26529;51.530;11.754;2023-02-10T01:40:34;101846.75;;;18.83;42.56
40075;BME280;26529;51.530;11.754;2023-02-10T01:43:00;101849.41;;;18.83;42.54
40075;BME280;26529;51.530;11.754;2023-02-10T01:45:33;101853.84;;;18.82;42.42
40075;BME280;26529;51.530;11.754;2023-02-10T01:48:00;101857.47;;;18.80;42.50
40075;BME280;26529;51.530;11.754;2023-02-10T01:50:29;101854.81;;;18.80;42.52
40075;BME280;26529;51.530;11.754;2023-02-10T01:52:58;101857.47;;;18.80;42.53
40075;BME280;26529;51.530;11.754;2023-02-10T01:55:28;101854.97;;;18.77;42.36
40075;BME280;26529;51.530;11.754;2023-02-10T01:57:59;101852.25;;;18.78;42.46
40075;BME280;26529;51.530;11.754;2023-02-10T02:00:25;101849.63;;;18.77;42.69
40075;BME280;26529;51.530;11.754;2023-02-10T02:02:51;101840.75;;;18.78;42.60
40075;BME280;26529;51.530;11.754;2023-02-10T02:05:35;101844.31;;;18.77;42.59
40075;BME280;26529;51.530;11.754;2023-02-10T02:08:07;101841.72;;;18.75;42.52
40075;BME280;26529;51.530;11.754;2023-02-10T02:13:35;101845.31;;;18.74;42.69
40075;BME280;26529;51.530;11.754;2023-02-10T02:16:21;101843.56;;;18.73;42.47
40075;BME280;26529;51.530;11.754;2023-02-10T02:33:21;101852.56;;;18.69;42.51
40075;BME280;26529;51.530;11.754;2023-02-10T02:35:59;101852.56;;;18.69;42.57
40075;BME280;26529;51.530;11.754;2023-02-10T02:38:26;101852.66;;;18.67;42.59
40075;BME280;26529;51.530;11.754;2023-02-10T02:40:51;101856.16;;;18.68;42.45
40075;BME280;26529;51.530;11.754;2023-02-10T02:43:17;101860.63;;;18.67;42.58
40075;BME280;26529;51.530;11.754;2023-02-10T02:46:05;101850.00;;;18.67;42.45
40075;BME280;26529;51.530;11.754;2023-02-10T02:48:57;101848.22;;;18.66;42.67
40075;BME280;26529;51.530;11.754;2023-02-10T02:51:41;101858.00;;;18.66;42.61
40075;BME280;26529;51.530;11.754;2023-02-10T02:56:49;101843.84;;;18.65;42.57
40075;BME280;26529;51.530;11.754;2023-02-10T02:59:32;101851.00;;;18.63;42.61
40075;BME280;26529;51.530;11.754;2023-02-10T03:02:02;101847.44;;;18.64;42.58
40075;BME280;26529;51.530;11.754;2023-02-10T03:04:31;101842.16;;;18.63;42.41
40075;BME280;26529;51.530;11.754;2023-02-10T03:07:00;101848.34;;;18.63;42.65
40075;BME280;26529;51.530;11.754;2023-02-10T03:09:27;101853.66;;;18.63;42.52
40075;BME280;26529;51.530;11.754;2023-02-10T03:11:52;101859.03;;;18.62;42.44
40075;BME280;26529;51.530;11.754;2023-02-10T03:14:18;101857.25;;;18.62;42.61
40075;BME280;26529;51.530;11.754;2023-02-10T03:16:43;101843.13;;;18.60;42.51
40075;BME280;26529;51.530;11.754;2023-02-10T03:19:09;101841.38;;;18.61;42.88
40075;BME280;26529;51.530;11.754;2023-02-10T03:21:35;101849.34;;;18.61;42.48
40075;BME280;26529;51.530;11.754;2023-02-10T03:24:00;101855.53;;;18.61;42.50
40075;BME280;26529;51.530;11.754;2023-02-10T03:26:29;101852.03;;;18.59;42.58
40075;BME280;26529;51.530;11.754;2023-02-10T03:28:55;101864.38;;;18.60;42.41
40075;BME280;26529;51.530;11.754;2023-02-10T03:31:21;101867.03;;;18.60;42.60
40075;BME280;26529;51.530;11.754;2023-02-10T03:33:48;101859.16;;;18.58;42.63
40075;BME280;26529;51.530;11.754;2023-02-10T03:36:13;101859.19;;;18.57;42.49
40075;BME280;26529;51.530;11.754;2023-02-10T03:38:39;101854.78;;;18.57;42.88
40075;BME280;26529;51.530;11.754;2023-02-10T03:41:04;101858.31;;;18.56;42.65
40075;BME280;26529;51.530;11.754;2023-02-10T03:43:30;101861.91;;;18.55;42.59
40075;BME280;26529;51.530;11.754;2023-02-10T03:46:02;101869.03;;;18.55;42.54
40075;BME280;26529;51.530;11.754;2023-02-10T03:48:28;101873.47;;;18.54;42.64
40075;BME280;26529;51.530;11.754;2023-02-10T03:50:58;101871.69;;;18.55;42.74
40075;BME280;26529;51.530;11.754;2023-02-10T03:53:24;101874.34;;;18.55;42.66
40075;BME280;26529;51.530;11.754;2023-02-10T03:55:50;101884.13;;;18.53;42.77
40075;BME280;26529;51.530;11.754;2023-02-10T03:58:16;101878.81;;;18.53;42.59
40075;BME280;26529;51.530;11.754;2023-02-10T04:00:41;101889.44;;;18.53;42.65
40075;BME280;26529;51.530;11.754;2023-02-10T04:03:07;101891.16;;;18.54;42.74
40075;BME280;26529;51.530;11.754;2023-02-10T04:05:32;101894.75;;;18.53;42.78
40075;BME280;26529;51.530;11.754;2023-02-10T04:07:58;101883.31;;;18.51;42.65
40075;BME280;26529;51.530;11.754;2023-02-10T04:10:23;101886.84;;;18.51;42.69
40075;BME280;26529;51.530;11.754;2023-02-10T04:12:49;101885.97;;;18.51;42.71
40075;BME280;26529;51.530;11.754;2023-02-10T04:15:15;101900.19;;;18.50;42.75
40075;BME280;26529;51.530;11.754;2023-02-10T04:17:40;101889.56;;;18.50;42.42
40075;BME280;26529;51.530;11.754;2023-02-10T04:20:06;101894.88;;;18.50;42.73
40075;BME280;26529;51.530;11.754;2023-02-10T04:22:31;101895.81;;;18.49;42.79
40075;BME280;26529;51.530;11.754;2023-02-10T04:24:57;101896.66;;;18.49;42.64
40075;BME280;26529;51.530;11.754;2023-02-10T04:27:22;101899.38;;;18.48;42.80
40075;BME280;26529;51.530;11.754;2023-02-10T04:29:48;101899.38;;;18.48;42.70
40075;BME280;26529;51.530;11.754;2023-02-10T04:32:13;101900.28;;;18.47;42.71
40075;BME280;26529;51.530;11.754;2023-02-10T04:34:39;101898.50;;;18.47;42.56
40075;BME280;26529;51.530;11.754;2023-02-10T04:37:05;101908.25;;;18.47;42.75
40075;BME280;26529;51.530;11.754;2023-02-10T04:39:31;101910.06;;;18.46;42.66
40075;BME280;26529;51.530;11.754;2023-02-10T04:41:56;101909.16;;;18.46;42.66
40075;BME280;26529;51.530;11.754;2023-02-10T04:44:22;101915.41;;;18.44;42.66
40075;BME280;26529;51.530;11.754;2023-02-10T04:46:47;101913.69;;;18.43;42.69
40075;BME280;26529;51.530;11.754;2023-02-10T04:49:15;101924.31;;;18.43;42.67
40075;BME280;26529;51.530;11.754;2023-02-10T04:51:41;101922.56;;;18.42;42.80
40075;BME280;26529;51.530;11.754;2023-02-10T04:54:07;101925.22;;;18.42;42.83
40075;BME280;26529;51.530;11.754;2023-02-10T04:56:32;101916.38;;;18.42;42.85
40075;BME280;26529;51.530;11.754;2023-02-10T04:58:58;101922.53;;;18.44;42.66
40075;BME280;26529;51.530;11.754;2023-02-10T05:01:23;101923.50;;;18.41;42.64
40075;BME280;26529;51.530;11.754;2023-02-10T05:03:49;101925.31;;;18.39;42.81
40075;BME280;26529;51.530;11.754;2023-02-10T05:06:14;101927.03;;;18.40;42.87
40075;BME280;26529;51.530;11.754;2023-02-10T05:08:42;101927.94;;;18.41;42.69
40075;BME280;26529;51.530;11.754;2023-02-10T05:11:09;101937.66;;;18.40;42.74
40075;BME280;26529;51.530;11.754;2023-02-10T05:13:35;101945.72;;;18.39;42.93
40075;BME280;26529;51.530;11.754;2023-02-10T05:16:01;101937.66;;;18.40;42.88
40075;BME280;26529;51.530;11.754;2023-02-10T05:18:31;101939.44;;;18.41;42.64
40075;BME280;26529;51.530;11.754;2023-02-10T05:20:57;101944.81;;;18.38;42.70
40075;BME280;26529;51.530;11.754;2023-02-10T05:23:23;101950.13;;;18.38;42.82
40075;BME280;26529;51.530;11.754;2023-02-10T05:25:49;101954.59;;;18.38;42.67
40075;BME280;26529;51.530;11.754;2023-02-10T05:28:14;101952.78;;;18.38;42.87
40075;BME280;26529;51.530;11.754;2023-02-10T05:30:40;101954.59;;;18.38;42.50
40075;BME280;26529;51.530;11.754;2023-02-10T05:33:05;101955.50;;;18.37;42.80
40075;BME280;26529;51.530;11.754;2023-02-10T05:35:31;101955.56;;;18.35;42.69
40075;BME280;26529;51.530;11.754;2023-02-10T05:37:56;101957.31;;;18.36;42.79
40075;BME280;26529;51.530;11.754;2023-02-10T05:40:22;101958.28;;;18.34;42.71
40075;BME280;26529;51.530;11.754;2023-02-10T05:42:49;101965.34;;;18.33;42.88
40075;BME280;26529;51.530;11.754;2023-02-10T05:45:15;101960.97;;;18.32;42.89
40075;BME280;26529;51.530;11.754;2023-02-10T05:47:41;101959.16;;;18.34;42.65
40075;BME280;26529;51.530;11.754;2023-02-10T05:50:06;101961.72;;;18.36;42.77
40075;BME280;26529;51.530;11.754;2023-02-10T05:52:32;101974.19;;;18.34;42.81
40075;BME280;26529;51.530;11.754;2023-02-10T05:54:57;101977.75;;;18.34;42.71
40075;BME280;26529;51.530;11.754;2023-02-10T05:57:23;101973.31;;;18.33;42.83
40075;BME280;26529;51.530;11.754;2023-02-10T05:59:48;101978.63;;;18.33;42.84
40075;BME280;26529;51.530;11.754;2023-02-10T06:02:14;101979.56;;;18.32;42.96
40075;BME280;26529;51.530;11.754;2023-02-10T06:04:39;101976.97;;;18.30;42.81
40075;BME280;26529;51.530;11.754;2023-02-10T06:07:05;101978.75;;;18.30;42.90
40075;BME280;26529;51.530;11.754;2023-02-10T06:09:30;101984.00;;;18.32;42.82
40075;BME280;26529;51.530;11.754;2023-02-10T06:11:56;101982.00;;;18.38;42.82
40075;BME280;26529;51.530;11.754;2023-02-10T06:14:21;101985.38;;;18.43;42.77
40075;BME280;26529;51.530;11.754;2023-02-10T06:16:47;101978.94;;;18.51;42.66
40075;BME280;26529;51.530;11.754;2023-02-10T06:19:12;101985.91;;;18.55;42.64
40075;BME280;26529;51.530;11.754;2023-02-10T06:21:38;101990.19;;;18.59;42.33
40075;BME280;26529;51.530;11.754;2023-02-10T06:24:03;101995.44;;;18.61;42.82
40075;BME280;26529;51.530;11.754;2023-02-10T06:26:29;101992.78;;;18.61;42.82
40075;BME280;26529;51.530;11.754;2023-02-10T06:28:55;101994.47;;;18.63;42.70
40075;BME280;26529;51.530;11.754;2023-02-10T06:31:21;101997.13;;;18.63;42.79
40075;BME280;26529;51.530;11.754;2023-02-10T06:33:47;101997.97;;;18.64;42.78
40075;BME280;26529;51.530;11.754;2023-02-10T06:36:13;101997.09;;;18.65;42.79
40075;BME280;26529;51.530;11.754;2023-02-10T06:38:39;101995.28;;;18.65;42.94
40075;BME280;26529;51.530;11.754;2023-02-10T06:41:04;101995.28;;;18.65;42.90
40075;BME280;26529;51.530;11.754;2023-02-10T06:43:31;101991.63;;;18.69;42.86
40075;BME280;26529;51.530;11.754;2023-02-10T06:45:56;101995.28;;;18.65;42.93
40075;BME280;26529;51.530;11.754;2023-02-10T06:48:22;101995.41;;;18.62;43.06
40075;BME280;26529;51.530;11.754;2023-02-10T06:50:47;101998.97;;;18.61;43.14
40075;BME280;26529;51.530;11.754;2023-02-10T06:53:13;101995.50;;;18.59;43.22
40075;BME280;26529;51.530;11.754;2023-02-10T06:55:38;101991.91;;;18.60;43.10
40075;BME280;26529;51.530;11.754;2023-02-10T06:58:04;102000.81;;;18.59;43.41
40075;BME280;26529;51.530;11.754;2023-02-10T07:00:29;101991.09;;;18.58;43.32
40075;BME280;26529;51.530;11.754;2023-02-10T07:02:58;101997.22;;;18.60;43.15
40075;BME280;26529;51.530;11.754;2023-02-10T07:05:24;102007.03;;;18.58;43.25
40075;BME280;26529;51.530;11.754;2023-02-10T07:07:50;102005.25;;;18.58;43.28
40075;BME280;26529;51.530;11.754;2023-02-10T07:10:19;102015.81;;;18.60;43.21
40075;BME280;26529;51.530;11.754;2023-02-10T07:12:45;102022.94;;;18.60;43.21
40075;BME280;26529;51.530;11.754;2023-02-10T07:15:12;102023.78;;;18.60;43.10
40075;BME280;26529;51.530;11.754;2023-02-10T07:17:38;102020.31;;;18.58;43.28
40075;BME280;26529;51.530;11.754;2023-02-10T07:20:05;102020.28;;;18.60;43.30
40075;BME280;26529;51.530;11.754;2023-02-10T07:22:30;102035.91;;;18.69;43.04
40075;BME280;26529;51.530;11.754;2023-02-10T07:24:56;102044.44;;;18.79;42.88
40075;BME280;26529;51.530;11.754;2023-02-10T07:27:22;102040.75;;;18.83;42.76
40075;BME280;26529;51.530;11.754;2023-02-10T07:29:47;102045.97;;;18.86;42.64
40075;BME280;26529;51.530;11.754;2023-02-10T07:32:14;102051.28;;;18.86;42.97
40075;BME280;26529;51.530;11.754;2023-02-10T07:34:39;102054.78;;;18.88;42.50
40075;BME280;26529;51.530;11.754;2023-02-10T07:37:06;102052.09;;;18.88;42.91
40075;BME280;26529;51.530;11.754;2023-02-10T07:39:32;102053.94;;;18.86;42.75
40075;BME280;26529;51.530;11.754;2023-02-10T07:41:57;102060.16;;;18.85;43.10
40075;BME280;26529;51.530;11.754;2023-02-10T07:44:33;102062.03;;;18.83;42.88
40075;BME280;26529;51.530;11.754;2023-02-10T07:46:58;102056.59;;;18.86;42.71
40075;BME280;26529;51.530;11.754;2023-02-10T07:49:24;102049.38;;;18.90;42.73
40075;BME280;26529;51.530;11.754;2023-02-10T07:51:52;102052.72;;;18.96;42.81
40075;BME280;26529;51.530;11.754;2023-02-10T07:54:17;102052.72;;;18.96;42.69
40075;BME280;26529;51.530;11.754;2023-02-10T07:56:43;102050.84;;;18.98;42.70
40075;BME280;26529;51.530;11.754;2023-02-10T07:59:08;102052.59;;;18.99;42.80
40075;BME280;26529;51.530;11.754;2023-02-10T08:01:34;102054.41;;;18.99;42.74
40075;BME280;26529;51.530;11.754;2023-02-10T08:04:05;102059.63;;;19.01;42.63
40075;BME280;26529;51.530;11.754;2023-02-10T08:06:31;102064.06;;;19.02;42.71
40075;BME280;26529;51.530;11.754;2023-02-10T08:08:56;102060.28;;;19.09;43.08
40075;BME280;26529;51.530;11.754;2023-02-10T08:11:22;102062.84;;;19.12;42.50
40075;BME280;26529;51.530;11.754;2023-02-10T08:13:47;102060.00;;;19.17;42.74
40075;BME280;26529;51.530;11.754;2023-02-10T08:16:13;102055.66;;;19.14;42.86
40075;BME280;26529;51.530;11.754;2023-02-10T08:18:38;102052.09;;;19.15;42.70
40075;BME280;26529;51.530;11.754;2023-02-10T08:21:04;102053.16;;;19.09;42.89
40075;BME280;26529;51.530;11.754;2023-02-10T08:23:30;102062.63;;;19.18;42.91
40075;BME280;26529;51.530;11.754;2023-02-10T08:25:56;102067.84;;;19.21;42.51
40075;BME280;26529;51.530;11.754;2023-02-10T08:28:21;102064.38;;;19.18;42.73
40075;BME280;26529;51.530;11.754;2023-02-10T08:30:47;102065.41;;;19.15;42.61
40075;BME280;26529;51.530;11.754;2023-02-10T08:33:12;102060.13;;;19.14;42.56
40075;BME280;26529;51.530;11.754;2023-02-10T08:35:39;102073.41;;;19.14;42.68
40075;BME280;26529;51.530;11.754;2023-02-10T08:38:06;102066.00;;;19.23;42.64
40075;BME280;26529;51.530;11.754;2023-02-10T08:40:32;102071.19;;;19.27;42.40
40075;BME280;26529;51.530;11.754;2023-02-10T08:42:58;102068.34;;;19.31;42.30
40075;BME280;26529;51.530;11.754;2023-02-10T08:45:24;102072.03;;;19.29;42.13
40075;BME280;26529;51.530;11.754;2023-02-10T08:47:50;102071.31;;;19.23;42.35
40075;BME280;26529;51.530;11.754;2023-02-10T08:50:15;102073.03;;;19.24;42.37
40075;BME280;26529;51.530;11.754;2023-02-10T08:52:41;102074.91;;;19.22;42.47
40075;BME280;26529;51.530;11.754;2023-02-10T08:55:06;102076.63;;;19.23;42.43
40075;BME280;26529;51.530;11.754;2023-02-10T08:57:33;102067.75;;;19.23;42.36
40075;BME280;26529;51.530;11.754;2023-02-10T09:00:00;102072.16;;;19.24;42.42
40075;BME280;26529;51.530;11.754;2023-02-10T09:02:25;102074.78;;;19.25;42.42
40075;BME280;26529;51.530;11.754;2023-02-10T09:04:51;102071.19;;;19.27;42.46
40075;BME280;26529;51.530;11.754;2023-02-10T09:07:16;102069.41;;;19.27;42.44
40075;BME280;26529;51.530;11.754;2023-02-10T09:09:42;102076.50;;;19.27;42.50
40075;BME280;26529;51.530;11.754;2023-02-10T09:12:10;102080.00;;;19.29;42.41
40075;BME280;26529;51.530;11.754;2023-02-10T09:14:38;102082.66;;;19.29;42.40
40075;BME280;26529;51.530;11.754;2023-02-10T09:17:04;102084.44;;;19.28;42.15
40075;BME280;26529;51.530;11.754;2023-02-10T09:19:30;102085.31;;;19.29;42.40
40075;BME280;26529;51.530;11.754;2023-02-10T09:21:55;102096.84;;;19.28;42.32
40075;BME280;26529;51.530;11.754;2023-02-10T09:24:22;102094.19;;;19.28;42.47
40075;BME280;26529;51.530;11.754;2023-02-10T09:26:48;102107.50;;;19.28;42.32
40075;BME280;26529;51.530;11.754;2023-02-10T09:29:14;102096.75;;;19.31;42.19
40075;BME280;26529;51.530;11.754;2023-02-10T09:31:39;102106.47;;;19.32;42.42
40075;BME280;26529;51.530;11.754;2023-02-10T09:34:04;102096.63;;;19.34;42.38
40075;BME280;26529;51.530;11.754;2023-02-10T09:36:30;102093.16;;;19.32;42.24
40075;BME280;26529;51.530;11.754;2023-02-10T09:38:56;102086.91;;;19.33;42.36
40075;BME280;26529;51.530;11.754;2023-02-10T09:44:18;102097.53;;;19.34;42.28
40075;BME280;26529;51.530;11.754;2023-02-10T09:55:22;102104.47;;;19.38;41.90
40075;BME280;26529;51.530;11.754;2023-02-10T09:57:55;102111.44;;;19.41;42.06
40075;BME280;26529;51.530;11.754;2023-02-10T10:00:28;102109.63;;;19.43;42.07
40075;BME280;26529;51.530;11.754;2023-02-10T10:02:55;102106.13;;;19.41;42.19
40075;BME280;26529;51.530;11.754;2023-02-10T10:08:27;102105.28;;;19.41;42.26
40075;BME280;26529;51.530;11.754;2023-02-10T10:10:56;102114.13;;;19.41;42.14
40075;BME280;26529;51.530;11.754;2023-02-10T10:13:27;102099.06;;;19.40;42.16
40075;BME280;26529;51.530;11.754;2023-02-10T10:16:13;102103.38;;;19.44;42.18
40075;BME280;26529;51.530;11.754;2023-02-10T10:18:53;102108.53;;;19.49;42.07
40075;BME280;26529;51.530;11.754;2023-02-10T10:21:30;102111.00;;;19.53;41.92
40075;BME280;26529;51.530;11.754;2023-02-10T10:24:13;102110.97;;;19.55;41.81
40075;BME280;26529;51.530;11.754;2023-02-10T10:29:53;102110.97;;;19.55;41.88
40075;BME280;26529;51.530;11.754;2023-02-10T10:32:34;102111.94;;;19.52;41.95
40075;BME280;26529;51.530;11.754;2023-02-10T10:35:01;102105.81;;;19.50;41.97
40075;BME280;26529;51.530;11.754;2023-02-10T10:37:27;102108.56;;;19.47;42.04
40075;BME280;26529;51.530;11.754;2023-02-10T10:40:00;102112.22;;;19.45;42.22
40075;BME280;26529;51.530;11.754;2023-02-10T10:42:35;102105.22;;;19.42;42.06
40075;BME280;26529;51.530;11.754;2023-02-10T10:45:06;102105.44;;;19.36;42.29
40075;BME280;26529;51.530;11.754;2023-02-10T10:47:40;102107.44;;;19.29;42.46
40075;BME280;26529;51.530;11.754;2023-02-10T10:50:12;102104.81;;;19.28;42.52
40075;BME280;26529;51.530;11.754;2023-02-10T10:52:40;102096.97;;;19.24;42.59
40075;BME280;26529;51.530;11.754;2023-02-10T10:55:37;102096.03;;;19.25;42.67
40075;BME280;26529;51.530;11.754;2023-02-10T10:58:11;102097.91;;;19.23;42.51
40075;BME280;26529;51.530;11.754;2023-02-10T11:00:52;102089.97;;;19.22;42.55
40075;BME280;26529;51.530;11.754;2023-02-10T11:03:18;102098.00;;;19.20;42.63
40075;BME280;26529;51.530;11.754;2023-02-10T11:05:55;102099.75;;;19.21;42.65
40075;BME280;26529;51.530;11.754;2023-02-10T11:08:25;102093.56;;;19.21;42.65
40075;BME280;26529;51.530;11.754;2023-02-10T11:10:54;102088.22;;;19.21;42.65
40075;BME280;26529;51.530;11.754;2023-02-10T11:13:24;102086.38;;;19.23;42.46
40075;BME280;26529;51.530;11.754;2023-02-10T11:16:11;102085.31;;;19.29;42.40
40075;BME280;26529;51.530;11.754;2023-02-10T11:18:55;102085.09;;;19.35;42.23
40075;BME280;26529;51.530;11.754;2023-02-10T11:21:33;102085.84;;;19.38;42.15
40075;BME280;26529;51.530;11.754;2023-02-10T11:23:58;102087.63;;;19.38;42.17
40075;BME280;26529;51.530;11.754;2023-02-10T11:26:26;102081.28;;;19.42;42.15
40075;BME280;26529;51.530;11.754;2023-02-10T11:28:53;102090.09;;;19.44;42.18
40075;BME280;26529;51.530;11.754;2023-02-10T11:34:13;102089.06;;;19.48;42.04
40075;BME280;26529;51.530;11.754;2023-02-10T11:36:41;102089.84;;;19.50;41.97
40075;BME280;26529;51.530;11.754;2023-02-10T11:39:37;102081.84;;;19.52;41.92
40075;BME280;26529;51.530;11.754;2023-02-10T11:42:10;102080.06;;;19.51;42.09
40075;BME280;26529;51.530;11.754;2023-02-10T11:44:36;102077.34;;;19.52;42.05
40075;BME280;26529;51.530;11.754;2023-02-10T11:47:04;102073.66;;;19.57;41.97
40075;BME280;26529;51.530;11.754;2023-02-10T11:49:34;102076.28;;;19.58;41.99
40075;BME280;26529;51.530;11.754;2023-02-10T11:52:02;102075.28;;;19.61;42.08
40075;BME280;26529;51.530;11.754;2023-02-10T11:54:29;102082.38;;;19.62;41.98
40075;BME280;26529;51.530;11.754;2023-02-10T12:05:54;102066.91;;;19.72;42.02
40075;BME280;26529;51.530;11.754;2023-02-10T12:08:32;102067.66;;;19.75;41.80
40075;BME280;26529;51.530;11.754;2023-02-10T12:13:49;102060.34;;;19.80;41.75
40075;BME280;26529;51.530;11.754;2023-02-10T12:16:30;102054.94;;;19.84;41.82
40075;BME280;26529;51.530;11.754;2023-02-10T12:19:12;102062.00;;;19.85;42.00
40075;BME280;26529;51.530;11.754;2023-02-10T12:27:30;102051.91;;;19.93;41.67
40075;BME280;26529;51.530;11.754;2023-02-10T12:35:48;102048.69;;;19.85;41.59
40075;BME280;26529;51.530;11.754;2023-02-10T12:38:40;102039.94;;;19.81;41.81
40075;BME280;26529;51.530;11.754;2023-02-10T12:41:38;102033.88;;;19.77;41.95
40075;BME280;26529;51.530;11.754;2023-02-10T12:53:20;102034.47;;;19.62;42.18
40075;BME280;26529;51.530;11.754;2023-02-10T12:55:55;102028.22;;;19.63;42.21
40075;BME280;26529;51.530;11.754;2023-02-10T12:58:33;102025.59;;;19.61;42.22
40075;BME280;26529;51.530;11.754;2023-02-10T13:01:16;102029.00;;;19.65;42.29
40075;BME280;26529;51.530;11.754;2023-02-10T13:03:47;102014.81;;;19.64;42.10
40075;BME280;26529;51.530;11.754;2023-02-10T13:06:55;102013.97;;;19.64;42.19
40075;BME280;26529;51.530;11.754;2023-02-10T13:09:26;102006.94;;;19.63;42.19
40075;BME280;26529;51.530;11.754;2023-02-10T13:12:05;102008.59;;;19.65;42.05
40075;BME280;26529;51.530;11.754;2023-02-10T13:14:35;102010.38;;;19.65;42.06
40075;BME280;26529;51.530;11.754;2023-02-10T13:17:03;102013.97;;;19.64;42.13
40075;BME280;26529;51.530;11.754;2023-02-10T13:19:36;102010.50;;;19.62;42.14
40075;BME280;26529;51.530;11.754;2023-02-10T13:22:34;102015.75;;;19.63;42.00
40075;BME280;26529;51.530;11.754;2023-02-10T13:25:14;102010.94;;;19.73;41.73
40075;BME280;26529;51.530;11.754;2023-02-10T13:28:03;102008.63;;;19.88;41.76
40075;BME280;26529;51.530;11.754;2023-02-10T13:30:57;102010.53;;;20.08;41.40
40075;BME280;26529;51.530;11.754;2023-02-10T13:36:19;102007.63;;;20.37;41.26
40075;BME280;26529;51.530;11.754;2023-02-10T13:38:58;102024.16;;;20.45;41.09
40075;BME280;26529;51.530;11.754;2023-02-10T13:41:30;102019.50;;;20.50;40.97
40075;BME280;26529;51.530;11.754;2023-02-10T13:44:29;102026.38;;;20.56;41.17
40075;BME280;26529;51.530;11.754;2023-02-10T13:47:12;102020.09;;;20.57;40.97
40075;BME280;26529;51.530;11.754;2023-02-10T13:49:52;102012.25;;;20.54;41.21
40075;BME280;26529;51.530;11.754;2023-02-10T13:52:22;102012.34;;;20.51;41.10
40075;BME280;26529;51.530;11.754;2023-02-10T13:57:25;102004.47;;;20.49;41.17
40075;BME280;26529;51.530;11.754;2023-02-10T13:59:50;102009.91;;;20.46;41.31
40075;BME280;26529;51.530;11.754;2023-02-10T14:02:19;101999.38;;;20.43;41.34
40075;BME280;26529;51.530;11.754;2023-02-10T14:04:52;101994.16;;;20.40;41.29
40075;BME280;26529;51.530;11.754;2023-02-10T14:12:53;101994.31;;;20.37;41.53